sensor_id;sensor_type;location;lat;lon;timestamp;P1;durP1;ratioP1;P2;durP2;ratioP2
48516;SDS011;34310;51.904;4.256;2023-03-01T00:01:27;3.90;;;3.50;;
48516;SDS011;34310;51.904;4.256;2023-03-01T00:03:56;4.25;;;3.80;;
48516;SDS011;34310;51.904;4.256;2023-03-01T00:06:25;4.22;;;3.60;;
48516;SDS011;34310;51.904;4.256;2023-03-01T00:08:53;3.95;;;3.38;;
48516;SDS011;34310;51.904;4.256;2023-03-01T00:11:22;3.20;;;2.90;;
48516;SDS011;34310;51.904;4.256;2023-03-01T00:13:52;3.47;;;3.15;;
48516;SDS011;34310;51.904;4.256;2023-03-01T00:16:22;3.90;;;3.50;;
48516;SDS011;34310;51.904;4.256;2023-03-01T00:18:56;3.78;;;3.22;;
48516;SDS011;34310;51.904;4.256;2023-03-01T00:21:24;3.45;;;3.15;;
48516;SDS011;34310;51.904;4.256;2023-03-01T00:23:53;3.65;;;3.20;;
48516;SDS011;34310;51.904;4.256;2023-03-01T00:26:21;4.65;;;3.35;;
48516;SDS011;34310;51.904;4.256;2023-03-01T00:28:50;3.45;;;3.00;;
48516;SDS011;34310;51.904;4.256;2023-03-01T00:31:21;3.70;;;3.40;;
48516;SDS011;34310;51.904;4.256;2023-03-01T00:33:53;4.00;;;3.28;;
48516;SDS011;34310;51.904;4.256;2023-03-01T00:36:24;3.38;;;3.08;;
48516;SDS011;34310;51.904;4.256;2023-03-01T00:38:54;3.72;;;3.33;;
48516;SDS011;34310;51.904;4.256;2023-03-01T00:41:22;4.05;;;3.65;;
48516;SDS011;34310;51.904;4.256;2023-03-01T00:43:52;3.28;;;2.97;;
48516;SDS011;34310;51.904;4.256;2023-03-01T00:46:23;3.47;;;3.17;;
48516;SDS011;34310;51.904;4.256;2023-03-01T00:48:52;3.70;;;3.40;;
48516;SDS011;34310;51.904;4.256;2023-03-01T00:51:21;3.72;;;3.28;;
48516;SDS011;34310;51.904;4.256;2023-03-01T00:53:53;4.50;;;3.50;;
48516;SDS011;34310;51.904;4.256;2023-03-01T00:56:22;3.75;;;3.20;;
48516;SDS011;34310;51.904;4.256;2023-03-01T00:58:50;4.05;;;3.55;;
48516;SDS011;34310;51.904;4.256;2023-03-01T01:01:19;4.53;;;3.63;;
48516;SDS011;34310;51.904;4.256;2023-03-01T01:03:50;3.83;;;3.50;;
48516;SDS011;34310;51.904;4.256;2023-03-01T01:06:26;4.13;;;3.72;;
48516;SDS011;34310;51.904;4.256;2023-03-01T01:09:02;4.00;;;3.60;;
48516;SDS011;34310;51.904;4.256;2023-03-01T01:11:31;4.43;;;3.90;;
48516;SDS011;34310;51.904;4.256;2023-03-01T01:13:58;4.40;;;3.70;;
48516;SDS011;34310;51.904;4.256;2023-03-01T01:16:26;4.15;;;3.78;;
48516;SDS011;34310;51.904;4.256;2023-03-01T01:18:55;4.32;;;3.80;;
48516;SDS011;34310;51.904;4.256;2023-03-01T01:21:23;4.10;;;3.63;;
48516;SDS011;34310;51.904;4.256;2023-03-01T01:23:51;4.50;;;4.10;;
48516;SDS011;34310;51.904;4.256;2023-03-01T01:26:21;3.85;;;3.55;;
48516;SDS011;34310;51.904;4.256;2023-03-01T01:28:51;4.10;;;3.70;;
48516;SDS011;34310;51.904;4.256;2023-03-01T01:31:20;3.70;;;3.40;;
48516;SDS011;34310;51.904;4.256;2023-03-01T01:33:50;4.40;;;4.00;;
48516;SDS011;34310;51.904;4.256;2023-03-01T01:36:18;4.05;;;3.65;;
48516;SDS011;34310;51.904;4.256;2023-03-01T01:38:46;4.38;;;3.97;;
48516;SDS011;34310;51.904;4.256;2023-03-01T01:41:13;4.55;;;4.15;;
48516;SDS011;34310;51.904;4.256;2023-03-01T01:43:42;4.53;;;4.13;;
48516;SDS011;34310;51.904;4.256;2023-03-01T01:46:16;4.32;;;3.92;;
48516;SDS011;34310;51.904;4.256;2023-03-01T01:49:02;4.90;;;3.90;;
48516;SDS011;34310;51.904;4.256;2023-03-01T01:51:39;4.57;;;4.18;;
48516;SDS011;34310;51.904;4.256;2023-03-01T01:54:11;4.82;;;4.43;;
48516;SDS011;34310;51.904;4.256;2023-03-01T01:56:42;4.80;;;4.30;;
48516;SDS011;34310;51.904;4.256;2023-03-01T01:59:14;4.32;;;3.92;;
48516;SDS011;34310;51.904;4.256;2023-03-01T02:01:42;4.60;;;4.20;;
48516;SDS011;34310;51.904;4.256;2023-03-01T02:04:10;5.15;;;4.28;;
48516;SDS011;34310;51.904;4.256;2023-03-01T02:06:39;5.00;;;4.50;;
48516;SDS011;34310;51.904;4.256;2023-03-01T02:09:20;4.95;;;4.35;;
48516;SDS011;34310;51.904;4.256;2023-03-01T02:11:49;5.20;;;4.65;;
48516;SDS011;34310;51.904;4.256;2023-03-01T02:14:18;5.10;;;4.60;;
48516;SDS011;34310;51.904;4.256;2023-03-01T02:16:45;5.13;;;4.63;;
48516;SDS011;34310;51.904;4.256;2023-03-01T02:19:17;4.80;;;4.35;;
48516;SDS011;34310;51.904;4.256;2023-03-01T02:22:06;5.20;;;4.70;;
48516;SDS011;34310;51.904;4.256;2023-03-01T02:27:14;4.80;;;4.38;;
48516;SDS011;34310;51.904;4.256;2023-03-01T02:29:43;4.93;;;4.43;;
48516;SDS011;34310;51.904;4.256;2023-03-01T02:32:11;4.80;;;4.20;;
48516;SDS011;34310;51.904;4.256;2023-03-01T02:34:40;5.28;;;4.78;;
48516;SDS011;34310;51.904;4.256;2023-03-01T02:37:09;4.70;;;4.30;;
48516;SDS011;34310;51.904;4.256;2023-03-01T02:39:44;5.88;;;5.25;;
48516;SDS011;34310;51.904;4.256;2023-03-01T02:42:18;6.45;;;5.47;;
48516;SDS011;34310;51.904;4.256;2023-03-01T02:44:52;7.65;;;6.03;;
48516;SDS011;34310;51.904;4.256;2023-03-01T02:47:20;6.78;;;6.07;;
48516;SDS011;34310;51.904;4.256;2023-03-01T02:49:47;8.43;;;7.38;;
48516;SDS011;34310;51.904;4.256;2023-03-01T02:52:21;9.85;;;8.55;;
48516;SDS011;34310;51.904;4.256;2023-03-01T02:55:09;10.60;;;9.32;;
48516;SDS011;34310;51.904;4.256;2023-03-01T02:57:40;14.02;;;11.05;;
48516;SDS011;34310;51.904;4.256;2023-03-01T03:00:11;15.27;;;12.75;;
48516;SDS011;34310;51.904;4.256;2023-03-01T03:02:46;16.98;;;14.45;;
48516;SDS011;34310;51.904;4.256;2023-03-01T03:05:17;19.15;;;16.10;;
48516;SDS011;34310;51.904;4.256;2023-03-01T03:07:46;21.88;;;17.15;;
48516;SDS011;34310;51.904;4.256;2023-03-01T03:10:19;21.50;;;18.50;;
48516;SDS011;34310;51.904;4.256;2023-03-01T03:12:53;26.13;;;20.63;;
48516;SDS011;34310;51.904;4.256;2023-03-01T03:15:30;25.73;;;20.83;;
48516;SDS011;34310;51.904;4.256;2023-03-01T03:18:02;26.42;;;21.45;;
48516;SDS011;34310;51.904;4.256;2023-03-01T03:20:32;25.50;;;20.92;;
48516;SDS011;34310;51.904;4.256;2023-03-01T03:23:00;26.98;;;21.98;;
48516;SDS011;34310;51.904;4.256;2023-03-01T03:25:27;26.55;;;22.48;;
48516;SDS011;34310;51.904;4.256;2023-03-01T03:27:56;27.10;;;22.65;;
48516;SDS011;34310;51.904;4.256;2023-03-01T03:30:28;24.73;;;21.23;;
48516;SDS011;34310;51.904;4.256;2023-03-01T03:32:58;25.23;;;21.70;;
48516;SDS011;34310;51.904;4.256;2023-03-01T03:35:29;26.55;;;21.92;;
48516;SDS011;34310;51.904;4.256;2023-03-01T03:37:59;27.67;;;22.52;;
48516;SDS011;34310;51.904;4.256;2023-03-01T03:40:31;26.33;;;22.30;;
48516;SDS011;34310;51.904;4.256;2023-03-01T03:43:05;27.50;;;22.17;;
48516;SDS011;34310;51.904;4.256;2023-03-01T03:45:34;25.77;;;21.75;;
48516;SDS011;34310;51.904;4.256;2023-03-01T03:48:02;24.38;;;20.98;;
48516;SDS011;34310;51.904;4.256;2023-03-01T03:50:32;24.75;;;21.40;;
48516;SDS011;34310;51.904;4.256;2023-03-01T03:53:00;24.27;;;21.65;;
48516;SDS011;34310;51.904;4.256;2023-03-01T03:55:29;24.30;;;21.70;;
48516;SDS011;34310;51.904;4.256;2023-03-01T03:57:57;24.63;;;20.35;;
48516;SDS011;34310;51.904;4.256;2023-03-01T04:00:37;25.50;;;20.58;;
48516;SDS011;34310;51.904;4.256;2023-03-01T04:03:06;22.67;;;19.65;;
48516;SDS011;34310;51.904;4.256;2023-03-01T04:05:35;23.25;;;20.00;;
48516;SDS011;34310;51.904;4.256;2023-03-01T04:08:03;23.63;;;19.73;;
48516;SDS011;34310;51.904;4.256;2023-03-01T04:10:34;23.20;;;20.00;;
48516;SDS011;34310;51.904;4.256;2023-03-01T04:13:04;21.35;;;18.58;;
48516;SDS011;34310;51.904;4.256;2023-03-01T04:15:33;21.88;;;18.67;;
48516;SDS011;34310;51.904;4.256;2023-03-01T04:18:01;20.00;;;17.45;;
48516;SDS011;34310;51.904;4.256;2023-03-01T04:20:30;22.25;;;18.15;;
48516;SDS011;34310;51.904;4.256;2023-03-01T04:23:07;20.75;;;17.40;;
48516;SDS011;34310;51.904;4.256;2023-03-01T04:25:38;19.80;;;17.05;;
48516;SDS011;34310;51.904;4.256;2023-03-01T04:28:06;17.90;;;16.00;;
48516;SDS011;34310;51.904;4.256;2023-03-01T04:30:36;19.48;;;16.23;;
48516;SDS011;34310;51.904;4.256;2023-03-01T04:33:05;17.50;;;15.60;;
48516;SDS011;34310;51.904;4.256;2023-03-01T04:35:33;17.48;;;15.35;;
48516;SDS011;34310;51.904;4.256;2023-03-01T04:38:02;16.08;;;14.38;;
48516;SDS011;34310;51.904;4.256;2023-03-01T04:40:31;17.92;;;14.63;;
48516;SDS011;34310;51.904;4.256;2023-03-01T04:42:58;16.65;;;14.52;;
48516;SDS011;34310;51.904;4.256;2023-03-01T04:45:26;16.42;;;14.45;;
48516;SDS011;34310;51.904;4.256;2023-03-01T04:47:53;14.88;;;13.32;;
48516;SDS011;34310;51.904;4.256;2023-03-01T04:50:24;16.52;;;13.38;;
48516;SDS011;34310;51.904;4.256;2023-03-01T04:52:52;15.65;;;12.65;;
48516;SDS011;34310;51.904;4.256;2023-03-01T04:55:19;14.55;;;13.02;;
48516;SDS011;34310;51.904;4.256;2023-03-01T04:57:46;14.70;;;12.98;;
48516;SDS011;34310;51.904;4.256;2023-03-01T05:00:14;14.77;;;11.93;;
48516;SDS011;34310;51.904;4.256;2023-03-01T05:02:49;13.52;;;12.00;;
48516;SDS011;34310;51.904;4.256;2023-03-01T05:05:21;12.85;;;10.80;;
48516;SDS011;34310;51.904;4.256;2023-03-01T05:08:00;12.98;;;10.93;;
48516;SDS011;34310;51.904;4.256;2023-03-01T05:10:30;11.85;;;10.68;;
48516;SDS011;34310;51.904;4.256;2023-03-01T05:12:59;11.80;;;10.48;;
48516;SDS011;34310;51.904;4.256;2023-03-01T05:15:28;12.13;;;10.93;;
48516;SDS011;34310;51.904;4.256;2023-03-01T05:17:57;11.30;;;10.20;;
48516;SDS011;34310;51.904;4.256;2023-03-01T05:20:26;11.27;;;10.18;;
48516;SDS011;34310;51.904;4.256;2023-03-01T05:22:55;11.75;;;10.52;;
48516;SDS011;34310;51.904;4.256;2023-03-01T05:25:25;10.98;;;9.73;;
48516;SDS011;34310;51.904;4.256;2023-03-01T05:27:53;11.30;;;10.20;;
48516;SDS011;34310;51.904;4.256;2023-03-01T05:30:20;11.02;;;9.48;;
48516;SDS011;34310;51.904;4.256;2023-03-01T05:32:49;11.32;;;10.23;;
48516;SDS011;34310;51.904;4.256;2023-03-01T05:35:22;10.30;;;9.23;;
48516;SDS011;34310;51.904;4.256;2023-03-01T05:37:50;11.30;;;10.10;;
48516;SDS011;34310;51.904;4.256;2023-03-01T05:40:18;10.35;;;9.15;;
48516;SDS011;34310;51.904;4.256;2023-03-01T05:42:48;10.05;;;9.05;;
48516;SDS011;34310;51.904;4.256;2023-03-01T05:45:21;10.10;;;9.10;;
48516;SDS011;34310;51.904;4.256;2023-03-01T05:47:49;10.52;;;9.52;;
48516;SDS011;34310;51.904;4.256;2023-03-01T05:50:21;10.57;;;9.43;;
48516;SDS011;34310;51.904;4.256;2023-03-01T05:52:59;10.65;;;9.57;;
48516;SDS011;34310;51.904;4.256;2023-03-01T05:55:28;11.32;;;10.13;;
48516;SDS011;34310;51.904;4.256;2023-03-01T05:58:04;10.85;;;9.68;;
48516;SDS011;34310;51.904;4.256;2023-03-01T06:00:34;12.48;;;10.40;;
48516;SDS011;34310;51.904;4.256;2023-03-01T06:03:01;11.82;;;10.63;;
48516;SDS011;34310;51.904;4.256;2023-03-01T06:05:29;11.13;;;10.00;;
48516;SDS011;34310;51.904;4.256;2023-03-01T06:08:00;11.95;;;10.57;;
48516;SDS011;34310;51.904;4.256;2023-03-01T06:10:27;14.63;;;11.48;;
48516;SDS011;34310;51.904;4.256;2023-03-01T06:12:55;12.02;;;10.75;;
48516;SDS011;34310;51.904;4.256;2023-03-01T06:15:23;11.68;;;10.30;;
48516;SDS011;34310;51.904;4.256;2023-03-01T06:17:52;11.98;;;10.77;;
48516;SDS011;34310;51.904;4.256;2023-03-01T06:20:26;13.18;;;10.68;;
48516;SDS011;34310;51.904;4.256;2023-03-01T06:22:54;11.50;;;10.30;;
48516;SDS011;34310;51.904;4.256;2023-03-01T06:25:22;11.88;;;10.65;;
48516;SDS011;34310;51.904;4.256;2023-03-01T06:27:51;12.93;;;11.07;;
48516;SDS011;34310;51.904;4.256;2023-03-01T06:30:20;12.40;;;10.98;;
48516;SDS011;34310;51.904;4.256;2023-03-01T06:32:48;11.98;;;10.00;;
48516;SDS011;34310;51.904;4.256;2023-03-01T06:35:16;11.57;;;10.38;;
48516;SDS011;34310;51.904;4.256;2023-03-01T06:37:45;11.60;;;10.40;;
48516;SDS011;34310;51.904;4.256;2023-03-01T06:40:14;11.98;;;10.60;;
48516;SDS011;34310;51.904;4.256;2023-03-01T06:42:42;11.85;;;10.65;;
48516;SDS011;34310;51.904;4.256;2023-03-01T06:45:14;10.75;;;9.68;;
48516;SDS011;34310;51.904;4.256;2023-03-01T06:47:43;12.23;;;10.80;;
48516;SDS011;34310;51.904;4.256;2023-03-01T06:50:10;11.40;;;10.02;;
48516;SDS011;34310;51.904;4.256;2023-03-01T06:52:38;12.00;;;10.05;;
48516;SDS011;34310;51.904;4.256;2023-03-01T06:55:05;12.13;;;10.07;;
48516;SDS011;34310;51.904;4.256;2023-03-01T06:57:33;10.98;;;9.88;;
48516;SDS011;34310;51.904;4.256;2023-03-01T07:00:00;10.98;;;9.88;;
48516;SDS011;34310;51.904;4.256;2023-03-01T07:02:28;10.30;;;9.20;;
48516;SDS011;34310;51.904;4.256;2023-03-01T07:04:56;10.07;;;9.00;;
48516;SDS011;34310;51.904;4.256;2023-03-01T07:07:23;10.20;;;9.07;;
48516;SDS011;34310;51.904;4.256;2023-03-01T07:09:50;10.02;;;8.82;;
48516;SDS011;34310;51.904;4.256;2023-03-01T07:12:19;9.90;;;8.63;;
48516;SDS011;34310;51.904;4.256;2023-03-01T07:14:46;9.98;;;8.60;;
48516;SDS011;34310;51.904;4.256;2023-03-01T07:17:13;9.40;;;8.40;;
48516;SDS011;34310;51.904;4.256;2023-03-01T07:19:41;9.40;;;8.50;;
48516;SDS011;34310;51.904;4.256;2023-03-01T07:22:08;10.00;;;8.50;;
48516;SDS011;34310;51.904;4.256;2023-03-01T07:24:35;8.63;;;7.70;;
48516;SDS011;34310;51.904;4.256;2023-03-01T07:27:02;8.32;;;7.53;;
48516;SDS011;34310;51.904;4.256;2023-03-01T07:29:30;8.73;;;7.85;;
48516;SDS011;34310;51.904;4.256;2023-03-01T07:31:57;8.43;;;7.55;;
48516;SDS011;34310;51.904;4.256;2023-03-01T07:34:25;9.23;;;8.10;;
48516;SDS011;34310;51.904;4.256;2023-03-01T07:36:52;9.18;;;7.70;;
48516;SDS011;34310;51.904;4.256;2023-03-01T07:39:19;14.50;;;8.50;;
48516;SDS011;34310;51.904;4.256;2023-03-01T07:41:49;16.73;;;9.23;;
48516;SDS011;34310;51.904;4.256;2023-03-01T07:44:17;14.75;;;10.23;;
48516;SDS011;34310;51.904;4.256;2023-03-01T07:46:44;18.83;;;10.52;;
48516;SDS011;34310;51.904;4.256;2023-03-01T07:49:11;14.88;;;9.68;;
48516;SDS011;34310;51.904;4.256;2023-03-01T07:51:39;14.55;;;10.50;;
48516;SDS011;34310;51.904;4.256;2023-03-01T07:54:06;14.35;;;9.77;;
48516;SDS011;34310;51.904;4.256;2023-03-01T07:56:34;12.05;;;10.10;;
48516;SDS011;34310;51.904;4.256;2023-03-01T07:59:01;16.67;;;10.18;;
48516;SDS011;34310;51.904;4.256;2023-03-01T08:01:28;12.93;;;9.95;;
48516;SDS011;34310;51.904;4.256;2023-03-01T08:03:56;13.18;;;10.45;;
48516;SDS011;34310;51.904;4.256;2023-03-01T08:06:23;15.32;;;9.93;;
48516;SDS011;34310;51.904;4.256;2023-03-01T08:08:50;14.65;;;10.07;;
48516;SDS011;34310;51.904;4.256;2023-03-01T08:11:17;11.45;;;9.65;;
48516;SDS011;34310;51.904;4.256;2023-03-01T08:13:47;12.93;;;9.95;;
48516;SDS011;34310;51.904;4.256;2023-03-01T08:16:18;11.63;;;10.23;;
48516;SDS011;34310;51.904;4.256;2023-03-01T08:18:46;12.13;;;10.20;;
48516;SDS011;34310;51.904;4.256;2023-03-01T08:21:14;12.75;;;9.88;;
48516;SDS011;34310;51.904;4.256;2023-03-01T08:23:43;12.27;;;10.15;;
48516;SDS011;34310;51.904;4.256;2023-03-01T08:28:39;11.23;;;10.13;;
48516;SDS011;34310;51.904;4.256;2023-03-01T08:31:18;14.43;;;10.43;;
48516;SDS011;34310;51.904;4.256;2023-03-01T08:33:48;13.27;;;10.30;;
48516;SDS011;34310;51.904;4.256;2023-03-01T08:36:24;14.20;;;10.47;;
48516;SDS011;34310;51.904;4.256;2023-03-01T08:38:54;13.38;;;10.15;;
48516;SDS011;34310;51.904;4.256;2023-03-01T08:41:22;13.13;;;11.10;;
48516;SDS011;34310;51.904;4.256;2023-03-01T08:43:50;13.13;;;10.65;;
48516;SDS011;34310;51.904;4.256;2023-03-01T08:46:18;13.13;;;10.90;;
48516;SDS011;34310;51.904;4.256;2023-03-01T08:48:46;13.77;;;11.15;;
48516;SDS011;34310;51.904;4.256;2023-03-01T08:51:14;13.20;;;11.27;;
48516;SDS011;34310;51.904;4.256;2023-03-01T08:53:43;13.63;;;10.88;;
48516;SDS011;34310;51.904;4.256;2023-03-01T08:56:11;13.90;;;11.30;;
48516;SDS011;34310;51.904;4.256;2023-03-01T08:58:38;13.68;;;11.35;;
48516;SDS011;34310;51.904;4.256;2023-03-01T09:01:06;12.80;;;10.88;;
48516;SDS011;34310;51.904;4.256;2023-03-01T09:03:35;14.13;;;11.32;;
48516;SDS011;34310;51.904;4.256;2023-03-01T09:06:04;15.82;;;12.07;;
48516;SDS011;34310;51.904;4.256;2023-03-01T09:08:34;14.80;;;11.75;;
48516;SDS011;34310;51.904;4.256;2023-03-01T09:11:06;15.05;;;12.50;;
48516;SDS011;34310;51.904;4.256;2023-03-01T09:13:35;14.82;;;12.30;;
48516;SDS011;34310;51.904;4.256;2023-03-01T09:16:03;15.23;;;12.85;;
48516;SDS011;34310;51.904;4.256;2023-03-01T09:18:33;16.05;;;13.15;;
48516;SDS011;34310;51.904;4.256;2023-03-01T09:21:09;15.70;;;12.40;;
48516;SDS011;34310;51.904;4.256;2023-03-01T09:23:38;15.85;;;12.38;;
48516;SDS011;34310;51.904;4.256;2023-03-01T09:26:08;13.45;;;11.13;;
48516;SDS011;34310;51.904;4.256;2023-03-01T09:28:37;14.35;;;11.20;;
48516;SDS011;34310;51.904;4.256;2023-03-01T09:31:05;14.50;;;11.52;;
48516;SDS011;34310;51.904;4.256;2023-03-01T09:33:33;13.30;;;11.45;;
48516;SDS011;34310;51.904;4.256;2023-03-01T09:36:01;14.60;;;12.13;;
48516;SDS011;34310;51.904;4.256;2023-03-01T09:38:31;12.95;;;10.90;;
48516;SDS011;34310;51.904;4.256;2023-03-01T09:40:59;12.73;;;10.90;;
48516;SDS011;34310;51.904;4.256;2023-03-01T09:43:37;12.73;;;10.90;;
48516;SDS011;34310;51.904;4.256;2023-03-01T09:46:14;12.73;;;10.57;;
48516;SDS011;34310;51.904;4.256;2023-03-01T09:51:19;12.55;;;9.75;;
48516;SDS011;34310;51.904;4.256;2023-03-01T09:53:55;10.82;;;9.70;;
48516;SDS011;34310;51.904;4.256;2023-03-01T09:56:30;10.15;;;9.07;;
48516;SDS011;34310;51.904;4.256;2023-03-01T09:59:21;11.38;;;9.48;;
48516;SDS011;34310;51.904;4.256;2023-03-01T10:04:49;10.68;;;9.30;;
48516;SDS011;34310;51.904;4.256;2023-03-01T10:10:10;11.77;;;9.23;;
48516;SDS011;34310;51.904;4.256;2023-03-01T10:12:57;10.02;;;8.80;;
48516;SDS011;34310;51.904;4.256;2023-03-01T10:15:42;10.60;;;8.35;;
48516;SDS011;34310;51.904;4.256;2023-03-01T10:18:15;10.15;;;7.88;;
48516;SDS011;34310;51.904;4.256;2023-03-01T10:20:57;9.68;;;8.27;;
48516;SDS011;34310;51.904;4.256;2023-03-01T10:23:27;10.43;;;8.40;;
48516;SDS011;34310;51.904;4.256;2023-03-01T10:29:01;8.35;;;7.15;;
48516;SDS011;34310;51.904;4.256;2023-03-01T10:31:35;9.20;;;7.75;;
48516;SDS011;34310;51.904;4.256;2023-03-01T10:34:19;9.13;;;7.75;;
48516;SDS011;34310;51.904;4.256;2023-03-01T10:36:55;10.38;;;7.78;;
48516;SDS011;34310;51.904;4.256;2023-03-01T10:39:27;10.77;;;7.72;;
48516;SDS011;34310;51.904;4.256;2023-03-01T10:42:01;8.65;;;7.45;;
48516;SDS011;34310;51.904;4.256;2023-03-01T10:47:22;8.65;;;7.28;;
48516;SDS011;34310;51.904;4.256;2023-03-01T10:52:26;8.57;;;7.00;;
48516;SDS011;34310;51.904;4.256;2023-03-01T11:03:16;8.07;;;6.97;;
48516;SDS011;34310;51.904;4.256;2023-03-01T11:05:52;8.15;;;6.53;;
48516;SDS011;34310;51.904;4.256;2023-03-01T11:08:36;7.25;;;6.43;;
48516;SDS011;34310;51.904;4.256;2023-03-01T11:11:13;8.15;;;6.60;;
48516;SDS011;34310;51.904;4.256;2023-03-01T11:13:51;7.65;;;6.38;;
48516;SDS011;34310;51.904;4.256;2023-03-01T11:16:25;7.03;;;6.13;;
48516;SDS011;34310;51.904;4.256;2023-03-01T11:19:37;6.60;;;5.80;;
48516;SDS011;34310;51.904;4.256;2023-03-01T11:21:55;6.43;;;5.50;;
48516;SDS011;34310;51.904;4.256;2023-03-01T11:24:37;7.03;;;5.72;;
48516;SDS011;34310;51.904;4.256;2023-03-01T11:27:14;5.82;;;5.18;;
48516;SDS011;34310;51.904;4.256;2023-03-01T11:29:54;6.05;;;5.05;;
48516;SDS011;34310;51.904;4.256;2023-03-01T11:32:34;6.25;;;5.40;;
48516;SDS011;34310;51.904;4.256;2023-03-01T11:35:18;5.82;;;5.22;;
48516;SDS011;34310;51.904;4.256;2023-03-01T11:38:05;5.65;;;4.60;;
48516;SDS011;34310;51.904;4.256;2023-03-01T11:51:38;6.00;;;4.78;;
48516;SDS011;34310;51.904;4.256;2023-03-01T12:42:57;5.70;;;4.90;;
48516;SDS011;34310;51.904;4.256;2023-03-01T12:46:00;6.82;;;5.15;;
48516;SDS011;34310;51.904;4.256;2023-03-01T12:48:54;5.68;;;4.90;;
48516;SDS011;34310;51.904;4.256;2023-03-01T12:51:50;6.15;;;5.50;;
48516;SDS011;34310;51.904;4.256;2023-03-01T12:54:31;5.53;;;4.93;;
48516;SDS011;34310;51.904;4.256;2023-03-01T12:57:26;6.45;;;5.20;;
48516;SDS011;34310;51.904;4.256;2023-03-01T13:00:24;6.70;;;6.00;;
48516;SDS011;34310;51.904;4.256;2023-03-01T13:03:00;5.38;;;4.88;;
48516;SDS011;34310;51.904;4.256;2023-03-01T13:05:54;6.60;;;5.78;;
48516;SDS011;34310;51.904;4.256;2023-03-01T13:08:31;6.50;;;5.65;;
48516;SDS011;34310;51.904;4.256;2023-03-01T13:11:14;6.13;;;5.53;;
48516;SDS011;34310;51.904;4.256;2023-03-01T13:13:47;7.13;;;6.03;;
48516;SDS011;34310;51.904;4.256;2023-03-01T13:21:39;7.05;;;5.72;;
48516;SDS011;34310;51.904;4.256;2023-03-01T13:24:27;6.93;;;6.20;;
48516;SDS011;34310;51.904;4.256;2023-03-01T13:37:42;6.70;;;5.80;;
48516;SDS011;34310;51.904;4.256;2023-03-01T13:42:47;6.20;;;5.60;;
48516;SDS011;34310;51.904;4.256;2023-03-01T13:45:38;6.35;;;5.65;;
48516;SDS011;34310;51.904;4.256;2023-03-01T13:48:18;5.90;;;5.20;;
48516;SDS011;34310;51.904;4.256;2023-03-01T13:50:53;6.00;;;5.32;;
48516;SDS011;34310;51.904;4.256;2023-03-01T13:53:28;5.85;;;5.25;;
48516;SDS011;34310;51.904;4.256;2023-03-01T13:56:12;5.43;;;4.93;;
48516;SDS011;34310;51.904;4.256;2023-03-01T13:58:52;6.28;;;5.13;;
48516;SDS011;34310;51.904;4.256;2023-03-01T14:01:28;5.88;;;5.03;;
48516;SDS011;34310;51.904;4.256;2023-03-01T14:04:00;6.47;;;5.25;;
48516;SDS011;34310;51.904;4.256;2023-03-01T14:06:30;6.40;;;5.35;;
48516;SDS011;34310;51.904;4.256;2023-03-01T14:09:01;5.25;;;4.75;;
48516;SDS011;34310;51.904;4.256;2023-03-01T14:14:25;5.60;;;4.97;;
48516;SDS011;34310;51.904;4.256;2023-03-01T14:19:27;5.20;;;4.65;;
48516;SDS011;34310;51.904;4.256;2023-03-01T14:22:04;6.25;;;5.03;;
48516;SDS011;34310;51.904;4.256;2023-03-01T14:24:38;5.30;;;4.53;;
48516;SDS011;34310;51.904;4.256;2023-03-01T14:27:12;5.57;;;4.72;;
48516;SDS011;34310;51.904;4.256;2023-03-01T14:29:41;5.03;;;4.22;;
48516;SDS011;34310;51.904;4.256;2023-03-01T14:32:19;4.90;;;4.20;;
48516;SDS011;34310;51.904;4.256;2023-03-01T14:34:50;5.72;;;4.40;;
48516;SDS011;34310;51.904;4.256;2023-03-01T14:39:57;5.45;;;4.40;;
48516;SDS011;34310;51.904;4.256;2023-03-01T14:42:27;5.30;;;4.40;;
48516;SDS011;34310;51.904;4.256;2023-03-01T14:45:00;6.63;;;4.20;;
48516;SDS011;34310;51.904;4.256;2023-03-01T14:47:30;5.35;;;3.97;;
48516;SDS011;34310;51.904;4.256;2023-03-01T14:50:01;5.07;;;4.13;;
48516;SDS011;34310;51.904;4.256;2023-03-01T14:52:41;5.38;;;4.00;;
48516;SDS011;34310;51.904;4.256;2023-03-01T14:57:50;6.30;;;4.60;;
48516;SDS011;34310;51.904;4.256;2023-03-01T15:03:07;4.80;;;4.18;;
48516;SDS011;34310;51.904;4.256;2023-03-01T15:05:40;4.72;;;4.00;;
48516;SDS011;34310;51.904;4.256;2023-03-01T15:08:15;5.05;;;3.97;;
48516;SDS011;34310;51.904;4.256;2023-03-01T15:10:56;4.53;;;4.05;;
48516;SDS011;34310;51.904;4.256;2023-03-01T15:13:34;5.22;;;3.78;;
48516;SDS011;34310;51.904;4.256;2023-03-01T15:16:15;4.53;;;4.13;;
48516;SDS011;34310;51.904;4.256;2023-03-01T15:18:47;4.88;;;4.10;;
48516;SDS011;34310;51.904;4.256;2023-03-01T15:21:36;4.53;;;3.78;;
48516;SDS011;34310;51.904;4.256;2023-03-01T15:26:53;4.15;;;3.55;;
48516;SDS011;34310;51.904;4.256;2023-03-01T15:29:28;4.97;;;3.97;;
48516;SDS011;34310;51.904;4.256;2023-03-01T15:32:03;4.18;;;3.78;;
48516;SDS011;34310;51.904;4.256;2023-03-01T15:34:49;4.65;;;3.60;;
48516;SDS011;34310;51.904;4.256;2023-03-01T15:40:22;3.95;;;3.55;;
48516;SDS011;34310;51.904;4.256;2023-03-01T15:42:58;5.80;;;3.55;;
48516;SDS011;34310;51.904;4.256;2023-03-01T15:45:33;5.18;;;3.83;;
48516;SDS011;34310;51.904;4.256;2023-03-01T15:48:04;4.05;;;3.50;;
48516;SDS011;34310;51.904;4.256;2023-03-01T15:50:42;7.43;;;3.88;;
48516;SDS011;34310;51.904;4.256;2023-03-01T15:53:12;5.85;;;3.55;;
48516;SDS011;34310;51.904;4.256;2023-03-01T15:55:41;5.00;;;3.88;;
48516;SDS011;34310;51.904;4.256;2023-03-01T15:58:21;6.32;;;3.65;;
48516;SDS011;34310;51.904;4.256;2023-03-01T16:00:50;4.03;;;3.45;;
48516;SDS011;34310;51.904;4.256;2023-03-01T16:03:27;4.00;;;3.60;;
48516;SDS011;34310;51.904;4.256;2023-03-01T16:05:55;4.53;;;3.95;;
48516;SDS011;34310;51.904;4.256;2023-03-01T16:08:23;4.35;;;3.47;;
48516;SDS011;34310;51.904;4.256;2023-03-01T16:10:50;4.75;;;3.70;;
48516;SDS011;34310;51.904;4.256;2023-03-01T16:13:19;4.25;;;3.80;;
48516;SDS011;34310;51.904;4.256;2023-03-01T16:15:47;4.50;;;3.63;;
48516;SDS011;34310;51.904;4.256;2023-03-01T16:18:14;4.70;;;3.70;;
48516;SDS011;34310;51.904;4.256;2023-03-01T16:20:41;4.85;;;4.00;;
48516;SDS011;34310;51.904;4.256;2023-03-01T16:23:10;5.43;;;4.30;;
48516;SDS011;34310;51.904;4.256;2023-03-01T16:25:38;4.28;;;3.70;;
48516;SDS011;34310;51.904;4.256;2023-03-01T16:28:05;5.07;;;3.67;;
48516;SDS011;34310;51.904;4.256;2023-03-01T16:30:37;4.65;;;3.90;;
48516;SDS011;34310;51.904;4.256;2023-03-01T16:33:06;4.43;;;4.03;;
48516;SDS011;34310;51.904;4.256;2023-03-01T16:35:55;4.32;;;3.63;;
48516;SDS011;34310;51.904;4.256;2023-03-01T16:38:22;4.55;;;4.00;;
48516;SDS011;34310;51.904;4.256;2023-03-01T16:40:50;5.88;;;4.10;;
48516;SDS011;34310;51.904;4.256;2023-03-01T16:43:18;5.50;;;3.90;;
48516;SDS011;34310;51.904;4.256;2023-03-01T16:45:45;4.15;;;3.75;;
48516;SDS011;34310;51.904;4.256;2023-03-01T16:48:13;4.28;;;3.88;;
48516;SDS011;34310;51.904;4.256;2023-03-01T16:50:41;6.28;;;4.72;;
48516;SDS011;34310;51.904;4.256;2023-03-01T16:53:08;5.05;;;4.35;;
48516;SDS011;34310;51.904;4.256;2023-03-01T16:55:36;6.18;;;4.30;;
48516;SDS011;34310;51.904;4.256;2023-03-01T16:58:04;5.50;;;3.72;;
48516;SDS011;34310;51.904;4.256;2023-03-01T17:00:31;4.72;;;3.78;;
48516;SDS011;34310;51.904;4.256;2023-03-01T17:02:59;5.28;;;3.90;;
48516;SDS011;34310;51.904;4.256;2023-03-01T17:05:27;5.03;;;3.50;;
48516;SDS011;34310;51.904;4.256;2023-03-01T17:07:54;6.20;;;3.72;;
48516;SDS011;34310;51.904;4.256;2023-03-01T17:10:24;5.03;;;4.18;;